Here is the Quick Look data you requested

The Data originates at the National Weather Service, and is made available here by the UAlbany Department of Atmospheric and Environmental Sciences

Surface Observations

PAAQ 230153Z AUTO 14006KT 10SM OVC110 M03/M11 A2961 RMK AO2 SLP032 T10281106
 TSNO=
PABA 230152Z AUTO 08010KT 10SM CLR M17/M20 A3005 RMK AO2 SLP160 T11721200
 FZRANO TSNO=
PABE 230153Z 34009KT 10SM CLR M08/M13 A3005 RMK AO2 SLP181 T10781133 $=
PABI 230153Z 26004KT 7SM -SN SCT050 BKN060 OVC090 M10/M14 A2983 RMK AO2 SLP149
 P0000 T11001144=
PABL 230156Z AUTO 14004KT 10SM OVC055 M15/M21 A3012 RMK AO2 SLP203 T11501206
 FZRANO=
PABR 230153Z 18008KT 10SM CLR M14/M17 A2992 RMK AO2 SLP132 T11391167 $=
PABT 230153Z 15003KT 10SM FEW210 M11/M22 A3000 RMK AO2 SLP181 T11061217=
PABV 230156Z AUTO 27004KT 10SM CLR M01/M08 A2964 RMK AO2 SLP044 T10111078
 FZRANO $=
PACD 230153Z AUTO 35017KT 10SM CLR 01/M09 A2987 RMK AO2 PK WND 35028/0056
 SLP117 T00061094 TSNO=
PACV 230153Z 26005KT 10SM FEW070 SCT085 SCT200 02/M04 A2955 RMK AO2 SLP005
 T00171039=
PACZ 230155Z AUTO 06013KT 10SM CLR M11/M15 A3006 RMK AO2
 SNB0114E0119SHSNB0119E0131 SLP196 T11121149=
PADE 230153Z AUTO 25003KT 4SM -SN SCT034 OVC050 M11/M15 A3009 RMK AO2 SLP189
 P0000 T11111150 TSNO $=
PADK 230156Z AUTO 10006KT 10SM SCT041 OVC048 04/M02 A2992 RMK AO1=
PADL 230156Z 36008KT 10SM CLR M02/M16 A2989 RMK AO2 SLP126 T10171161=
PADQ 230153Z 26009G18KT 10SM CLR 03/M11 A2965 RMK AO2 SLP040 T00281106=
PADU 230156Z 32008KT 10SM OVC027 02/M04 A2995 RMK AO2 SLP142 T00171044=
PAED 230158Z AUTO 21005KT 10SM CLR M02/M09 A2962 RMK AO2 SLP029 T10221091 CHINO
 RWY24=
PAEG 230153Z AUTO 35005KT 10SM CLR M08/M19 A2985 RMK AO2 SLP131 T10781194 TSNO=
PAEH 230155Z AUTO 01008KT 10SM CLR M07/M10 A2994 RMK AO2 SLP154 T10711102=
PAEI 230158Z 00000KT 10SM FEW060 SCT200 M08/M19 A2987 RMK AO2A SLP134 T10761193
 CHINO RWY14 $=
PAEN 230153Z 29007KT 10SM CLR M01/M15 A2965 RMK AO2 SLP043 T10111150=
PAFA 230153Z 20008KT 10SM FEW110 SCT200 M09/M18 A2989 RMK AO2 SLP135 T10891183
 VISNO NE=
PAFB 230158Z AUTO 23003KT 10SM CLR M11/M18 A2989 RMK AO2 SLP139 T11151183 $=
PAFE 230156Z AUTO 00000KT 10SM OVC065 06/M04 A2952 RMK AO1=
PAFM 230156Z AUTO 20003KT 10SM OVC095 M09/M18 A3009 RMK AO2 SLP203 T10941183
 FZRANO=
PAGA 230157Z AUTO 24005KT 10SM CLR M07/M17 A3004 RMK AO2 SLP180 T10721167
 FZRANO=
PAGK 230153Z AUTO 00000KT 10SM OVC075 M04/M13 A2962 RMK AO2 SLP073 T10441133
 TSNO=
PAGL 230156Z AUTO 00000KT 10SM OVC050 M12/M24 RMK AO1=
PAGM 230156Z AUTO 20009KT 10SM OVC055 M10/M12 A3016 RMK AO2 SLP220 T11001122
 FZRANO=
PAGS 230156Z AUTO 32007KT 10SM SCT047 OVC060 04/M04 A2952 RMK AO2 SLP997
 T00441039=
PAGY 230153Z AUTO 02007KT 10SM OVC085 07/M06 A2953 RMK AO2 SLP999 T00721061
 TSNO=
PAHN 230154Z AUTO 31011KT 10SM BKN075 04/M04 A2953 RMK AO2 SLP001 T00391039
 TSNO=
PAHO 230153Z 03007KT 10SM CLR 02/M13 A2964 RMK AO2 SLP039 T00221133=
PAHP 230156Z AUTO 02003KT 10SM CLR M11/M13 A3013 RMK AO2 SLP240 T11061133
 FZRANO=
PAII 230156Z AUTO 35010KT 10SM CLR M04/M12 A2988 RMK AO2 SLP121 T10391122
 FZRANO=
PAIL 230153Z 00000KT 10SM CLR M08/M15 A2979 RMK AO2 SLP092 T10781150=
PAIM 230155Z AUTO 11006KT 10SM CLR M09/M19 A2994 RMK AO2 SLP184 T10901193=
PAIN 230156Z AUTO 01007KT 10SM CLR M09/M18 A2977 RMK AO1=
PAJC 230156Z AUTO 24015KT 10SM CLR M02/M12 A2985 RMK AO2 SLP109 T10171117
 FZRANO=
PAJN 230153Z 12005KT 10SM FEW050 FEW065 BKN085 BKN150 05/M03 A2950 RMK AO2
 SLP988 T00501033=
PAKN 230154Z 01017G22KT 10SM CLR M04/M15 A2982 RMK AO2 SLP098 T10441150 $=
PAKP 230156Z AUTO 18008KT 10SM CLR M16/M24 A2985 RMK AO1=
PAKT 230153Z 14009KT 10SM -RA SCT012 BKN018 OVC025 03/03 A2954 RMK AO2 RAB34
 SLP003 HARBOR WIND 12010KT P0001 T00280028 $=
PAKU 230150Z VRB02KT 10SM R24/P6000FT FEW170 M18/M22 A3001=
PAKV 230153Z AUTO 00000KT 10SM UP CLR M04/M18 A3006 RMK AO2 SLP185 P0002
 T10441178 TSNO=
PAKW 230153Z AUTO 00000KT 3SM -RA BR OVC012 03/02 A2950 RMK SLP989 P0004
 T00330022 TSNO VIA AUTODIAL=
PALH 230153Z 00000KT 10SM CLR M02/M11 A2964 RMK AO2 SLP037 T10171106=
PALU 230155Z AUTO 21027KT 2SM -SN BR BKN003 M12/M14 A3004 RMK AO2 PK WND
 21031/0149 SNB2355 SLP171 P0000 T11211142=
PAMC 230153Z AUTO 04012G19KT 10SM CLR M05/M19 A2993 RMK AO2 SLP146 T10501189
 TSNO=
PAMD 230156Z AUTO 04006KT 10SM FEW027 OVC036 02/M04 A2953 RMK AO1=
PAMH 230156Z AUTO 00000KT 10SM CLR M05/M18 A2992 RMK AO2 SLP151 T10501178
 FZRANO=
PAMM 230156Z AUTO 10004KT 8SM SCT020 OVC034 04/01 A2955 RMK AO1 P0006=
PAMR 230153Z 32003KT 10SM CLR M01/M09 A2962 RMK AO2 SLP035 T10111094=
PAMY 230156Z AUTO 36003KT 10SM CLR M05/M11 A3013 RMK AO2 SLP204 T10501106
 FZRANO=
PANC 230153Z 21004KT 10SM FEW095 FEW150 M02/M11 A2962 RMK AO2 SLP035 T10171106=
PANI 230156Z AUTO 34010KT 10SM CLR M07/M17 A3002 RMK AO1=
PANN 230153Z AUTO 26005KT 10SM CLR M07/M19 A2989 RMK AO2 UPB0054E02 SLP139
 P0000 T10671189 TSNO=
PANT 230153Z AUTO 12008KT 8SM -RA FEW011 BKN016 OVC023 04/02 A2953 RMK AO2
 SLP001 P0008 T00440017 TSNO=
PANV 230156Z AUTO 00000KT 10SM CLR M03/M18 A3000 RMK AO1=
PAOH 230156Z AUTO 00000KT 10SM OVC080 04/M02 A2950 RMK AO2 SLP992 T00391017=
PAOM 230153Z 28003KT 10SM OVC060 M12/M14 A3011 RMK AO2 SNE39 SLP195 P0000
 T11171144=
PAOR 230153Z 35006KT 9SM -SN BKN042 BKN048 BKN130 M08/M15 A2968 RMK AO2 SLP099
 PCPN VRY LGT T10781150=
PAOT 230153Z 00000KT 4SM -SN BR OVC047 M17/M19 A3011 RMK AO2 SLP195 P0000
 T11671189=
PAPB 230153Z AUTO 06012KT 10SM CLR M01/M08 A3002 RMK AO2 SLP155 T10111078 TSNO=
PAPG 230156Z 07004KT 10SM FEW031 OVC050 04/00 A2950 RMK AO1=
PAPH 230156Z AUTO 34011KT 10SM CLR M04/M11 A2992 RMK AO2 SLP133 T10441111
 FZRANO=
PAPO 230156Z AUTO 18008KT 9SM -SN SCT017 M16/M18 A3010 RMK AO2 SLP192 P0000
 T11561183 FZRANO=
PAQT 230153Z AUTO 18008KT 10SM CLR M21/M23 A3002 RMK SLP168 T12061228 TSNO VIA
 AUTODIAL=
PASC 230153Z 20006KT 10SM CLR M19/M23 A3002 RMK AO2 SLP166 T11941228=
PASD 230156Z 35013KT 10SM FEW070 FEW100 BKN120 01/M12 A2983 RMK AO1 WEA: NONE
 (KH)=
PASH 230156Z 25006KT 10SM OVC010 M09/M12 A3015 RMK AO1 PNO=
PASI 230153Z 27004KT 10SM BKN070 BKN090 06/00 A2948 RMK AO2 SLP984 T00560000=
PASK 230156Z AUTO 24004KT 10SM CLR M18/M22 A3012 RMK AO2 SLP197 T11781222
 FZRANO $=
PASL 230156Z AUTO 00000KT 10SM CLR M03/M16 A2994 RMK AO1=
PASM 230156Z AUTO 35005KT 10SM CLR M07/M14 A3009 RMK AO2 SLP208 T10721144
 FZRANO $=
PASN 230153Z AUTO 06009KT 10SM CLR M02/M08 A3005 RMK AO2 SLP176 T10221078 TSNO
 $=
PASO 230153Z AUTO 36008G15KT 330V050 10SM CLR M01/M11 A2965 RMK AO2 SLP039
 T10061111 TSNO=
PASV 230155Z AUTO 35018G30KT 10SM CLR M10/M17 A2970 RMK AO2 PK WND 34030/0115
 SLP108 T10971172=
PASX 230156Z AUTO 28008KT 10SM CLR M01/M12 A2963 RMK AO1=
PASY 230156Z AUTO 10SM FEW019 BKN044 04/ A2978=
PATA 230152Z 29004KT 10SM CLR M07/M18 A2997 RMK AO2 SLP157 T10721183 PNO=
PATC 230155Z AUTO 20005KT 6SM -SN OVC038 M13/M14 A3010 RMK AO2 SNB2355 SLP202
 P0000 T11301140=
PATG 230156Z AUTO 21003KT 10SM CLR M05/M12 A2992 RMK AO2 SLP231 T10501117
 FZRANO=
PATK 230153Z AUTO 03011G22KT 360V060 10SM CLR 01/M13 A2961 RMK AO2 SLP034
 T00111133 TSNO=
PATL 230155Z AUTO 04010KT 350V080 10SM CLR M05/M19 A2991 RMK AO2 SLP159
 T10551190 $=
PATO 230153Z AUTO VRB05KT 10SM OVC100 M03/M11 A2963 RMK AO2 SLP035 T10331106
 TSNO=
PAUN 230156Z AUTO 22006KT 10SM CLR M12/M17 A3011 RMK AO2 SLP202 T11221167
 FZRANO=
PAVD 230156Z 32005KT 10SM SCT070 BKN150 BKN250 01/M12 A2959 RMK AO1 0147Z WEA:
 NONE TWR WND 30005KT=
PAVL 230153Z AUTO 17004KT 10SM CLR M16/M19 A3010 RMK AO2 SLP192 T11611189 TSNO
 $=
PAWD 230153Z AUTO 31014G21KT 10SM CLR 00/M13 A2959 RMK AO2 PK WND 31027/0104
 SLP019 T00001133 TSNO $=
PAWG 230145Z AUTO 06006KT 10SM FEW030 BKN040 OVC050 07/M06 A2951 RMK NONE MJ=
PAWI 230151Z AUTO 22009KT 1 1/4SM -SN BR BKN019 OVC060 M13/M15 A2991 RMK
 SNB0059 P0000 TSNO VIA AUTODIAL=
PAWN 230156Z AUTO 00000KT 4SM -SN OVC029 M14/M19 A3012 RMK AO2 SLP213 P0000
 T11441189 FZRANO=
PAWS 230156Z AUTO 08005KT 10SM CLR 00/M14 A2969 RMK AO1=
PAYA 230153Z AUTO 24003KT 10SM FEW050 OVC080 06/M03 A2950 RMK AO2 SLP991
 T00561033 TSNO=
PAZK 230156Z AUTO 35006KT 8SM SCT018 OVC050 M09/M14 A2950 RMK AO1=
PPIZ 230156Z AUTO 23015KT 9SM -SN FEW020 M13/M16 A3001 RMK AO2 SNB15 SLP165
 P0000 T11331156 FZRANO TSNO=